Santo Antonio do Jardim, Brazil
Current Conditions -  °F | °C
As of 9:00 AM on Wednesday 26 Nov 2014 (Local Time) from SBYS Reporting Station
Broken Clouds Broken Clouds  
Wind Chill: 72°   Ceiling: 700
Heat Index: 72°   Visibility: 4mi
Dew Point: 70°   Wind: 7mph
Humidity: 94%   Direction: 310°NW
Pressure: 29.88"   Gusts: NA
Location:  22.19°S, 46.75°W
Report Text: SBYS 261100Z 31006KT 7000 BKN007 BKN010 BKN070 22/21 Q1012
Loading
Personal Weather Stations






























Interactive Weather Map New forecast layout! Learn more

10-Day Weather Forecast

Advertisements
Track Severe Weather on mobile